Time;durP1;ratioP1;P1;durP2;ratioP2;P2;SDS_P1;SDS_P2;PMS_P1;PMS_P2;Temp;Humidity;BMP_temperature;BMP_pressure;BME280_temperature;BME280_humidity;BME280_pressure;Samples;Min_cycle;Max_cycle;Signal;HPM_P1;HPM_P2
2023/08/18 00:02:02;;;;;;;0.30;0.30;;;20.10;54.90;;;;;;5035795;28;20337;-69
2023/08/18 00:04:30;;;;;;;0.75;0.35;;;20.30;52.00;;;;;;5036802;28;20432;-71
2023/08/18 00:06:58;;;;;;;0.55;0.40;;;20.30;51.00;;;;;;5034999;28;20025;-70
2023/08/18 00:09:25;;;;;;;0.47;0.32;;;19.90;50.70;;;;;;5036393;28;20100;-71
2023/08/18 00:11:53;;;;;;;1.35;0.40;;;19.80;48.80;;;;;;5036558;28;20083;-72
2023/08/18 00:14:21;;;;;;;0.30;0.30;;;19.60;49.10;;;;;;5036526;28;20451;-72
2023/08/18 00:16:48;;;;;;;0.30;0.30;;;20.00;48.40;;;;;;5036375;28;20096;-71
2023/08/18 00:19:16;;;;;;;0.43;0.30;;;20.20;46.90;;;;;;5035291;28;20052;-72
2023/08/18 00:21:44;;;;;;;0.30;0.28;;;19.50;47.80;;;;;;5035419;28;20036;-72
2023/08/18 00:24:11;;;;;;;0.30;0.30;;;19.60;46.50;;;;;;5019024;28;20112;-73
2023/08/18 00:26:39;;;;;;;0.20;0.20;;;20.30;46.90;;;;;;5035142;28;20344;-73
2023/08/18 00:29:07;;;;;;;1.05;0.32;;;20.30;46.30;;;;;;5036181;28;20428;-72
2023/08/18 00:31:35;;;;;;;0.30;0.20;;;20.20;47.90;;;;;;5035300;28;20447;-71
2023/08/18 00:34:03;;;;;;;0.40;0.40;;;20.30;45.80;;;;;;5035406;28;20352;-71
2023/08/18 00:36:31;;;;;;;0.68;0.28;;;20.00;45.70;;;;;;5034829;28;20021;-72
2023/08/18 00:38:59;;;;;;;0.50;0.30;;;19.70;45.60;;;;;;5036108;28;20104;-73
2023/08/18 00:41:26;;;;;;;0.30;0.30;;;20.20;46.60;;;;;;5036229;28;20072;-72
2023/08/18 00:43:54;;;;;;;0.28;0.20;;;20.40;45.00;;;;;;5036084;28;20048;-72
2023/08/18 00:46:22;;;;;;;1.65;0.30;;;19.30;46.40;;;;;;5035074;28;20025;-74
2023/08/18 00:48:50;;;;;;;0.57;0.30;;;18.60;48.00;;;;;;5035039;28;20057;-73
2023/08/18 00:51:18;;;;;;;0.32;0.20;;;18.80;47.90;;;;;;5036054;28;20030;-74
2023/08/18 00:53:46;;;;;;;0.95;0.82;;;18.50;48.00;;;;;;5018397;28;20648;-74
2023/08/18 00:56:15;;;;;;;0.85;0.40;;;18.50;46.60;;;;;;5035741;28;20041;-72
2023/08/18 00:58:42;;;;;;;0.20;0.20;;;19.10;46.90;;;;;;5034775;28;20087;-74
2023/08/18 01:01:10;;;;;;;2.15;0.30;;;19.50;45.00;;;;;;5035851;28;20035;-73
2023/08/18 01:03:38;;;;;;;0.45;0.10;;;19.20;44.50;;;;;;5034681;28;20021;-74
2023/08/18 01:06:05;;;;;;;0.25;0.25;;;18.90;45.40;;;;;;5035659;28;20108;-73
2023/08/18 01:08:33;;;;;;;0.10;0.10;;;18.60;44.90;;;;;;5034471;28;20052;-74
2023/08/18 01:11:18;;;;;;;0.20;0.20;;;19.00;44.30;;;;;;5002005;28;20025;-73
2023/08/18 01:14:12;;;;;;;0.55;0.40;;;19.50;45.50;;;;;;5019337;28;20049;-73
2023/08/18 01:16:44;;;;;;;0.38;0.20;;;19.50;46.10;;;;;;5035066;28;20036;-73
2023/08/18 01:19:15;;;;;;;0.30;0.20;;;20.20;44.70;;;;;;5017717;28;20479;-74
2023/08/18 01:21:44;;;;;;;0.40;0.20;;;21.20;42.90;;;;;;5017941;28;20498;-73
2023/08/18 01:24:12;;;;;;;0.10;0.10;;;21.60;42.30;;;;;;5018383;28;20363;-72
2023/08/18 01:26:39;;;;;;;0.57;0.30;;;21.10;42.10;;;;;;5017854;28;20040;-72
2023/08/18 01:29:07;;;;;;;0.20;0.20;;;21.10;41.60;;;;;;5017899;28;20029;-73
2023/08/18 01:31:37;;;;;;;0.17;0.17;;;20.20;41.90;;;;;;5017812;28;20044;-72
2023/08/18 01:34:10;;;;;;;0.20;0.20;;;19.70;42.50;;;;;;5017975;28;20394;-74
2023/08/18 01:36:42;;;;;;;0.10;0.10;;;19.60;43.00;;;;;;5017799;28;20124;-74
2023/08/18 01:39:11;;;;;;;0.52;0.20;;;19.50;43.70;;;;;;5035139;28;20013;-73
2023/08/18 01:41:39;;;;;;;0.20;0.20;;;19.50;43.60;;;;;;5035276;28;20034;-73
2023/08/18 01:44:08;;;;;;;0.40;0.30;;;20.10;43.40;;;;;;5017808;28;20037;-74
2023/08/18 01:46:35;;;;;;;0.13;0.10;;;20.30;43.30;;;;;;5035160;28;20030;-73
2023/08/18 01:49:03;;;;;;;0.63;0.30;;;20.10;42.90;;;;;;5033996;28;20328;-73
2023/08/18 01:51:31;;;;;;;1.45;0.30;;;20.00;42.10;;;;;;5017715;28;20033;-73
2023/08/18 01:53:58;;;;;;;1.35;0.55;;;20.00;41.40;;;;;;5035127;28;20017;-73
2023/08/18 01:56:26;;;;;;;0.95;0.40;;;20.10;42.20;;;;;;5034069;28;20355;-73
2023/08/18 01:58:54;;;;;;;0.20;0.20;;;21.20;41.60;;;;;;5035022;28;20074;-73
2023/08/18 02:01:22;;;;;;;0.17;0.10;;;21.80;40.80;;;;;;5035143;28;20336;-73
2023/08/18 02:03:53;;;;;;;0.20;0.20;;;20.80;40.40;;;;;;5034843;28;20030;-73
2023/08/18 02:06:20;;;;;;;0.20;0.20;;;20.60;40.40;;;;;;5018410;28;20036;-71
2023/08/18 02:08:48;;;;;;;0.40;0.40;;;20.70;40.60;;;;;;5034844;28;20096;-71
2023/08/18 02:11:16;;;;;;;0.30;0.30;;;20.30;41.20;;;;;;5033801;28;20025;-71
2023/08/18 02:13:43;;;;;;;0.13;0.13;;;20.40;40.70;;;;;;5033907;28;20495;-71
2023/08/18 02:16:11;;;;;;;1.30;0.20;;;20.80;39.40;;;;;;5033724;28;20108;-70
2023/08/18 02:18:39;;;;;;;0.65;0.30;;;20.50;40.00;;;;;;5033484;28;20018;-70
2023/08/18 02:21:06;;;;;;;0.30;0.30;;;20.80;39.00;;;;;;5033705;28;20495;-71
2023/08/18 02:23:34;;;;;;;0.20;0.20;;;21.00;38.60;;;;;;5033924;28;20099;-72
2023/08/18 02:26:03;;;;;;;1.15;0.40;;;20.60;38.20;;;;;;5016704;28;20439;-70
2023/08/18 02:28:31;;;;;;;1.30;0.47;;;20.30;39.50;;;;;;5030984;28;20029;-71
2023/08/18 02:31:04;;;;;;;0.52;0.40;;;21.10;39.10;;;;;;5037009;28;20514;-70
2023/08/18 02:33:33;;;;;;;1.55;0.50;;;21.70;37.80;;;;;;5020478;28;20026;-71
2023/08/18 02:36:01;;;;;;;0.52;0.40;;;21.60;37.40;;;;;;5036987;28;20439;-71
2023/08/18 02:38:29;;;;;;;0.60;0.30;;;21.00;37.60;;;;;;5038332;28;20058;-71
2023/08/18 02:40:57;;;;;;;0.40;0.40;;;20.90;36.60;;;;;;5004903;28;20039;-70
2023/08/18 02:43:25;;;;;;;0.90;0.40;;;20.70;36.60;;;;;;5038271;28;20109;-71
2023/08/18 02:46:02;;;;;;;0.30;0.30;;;20.70;37.40;;;;;;5020943;28;20075;-72
2023/08/18 02:48:30;;;;;;;0.75;0.40;;;21.00;36.30;;;;;;5020754;28;20041;-70
2023/08/18 02:51:09;;;;;;;0.60;0.50;;;20.90;37.90;;;;;;5020718;28;20021;-70
2023/08/18 02:53:38;;;;;;;0.68;0.40;;;20.80;37.50;;;;;;5020991;28;20029;-72
2023/08/18 02:56:06;;;;;;;0.82;0.50;;;20.70;38.10;;;;;;5037169;28;20048;-70
2023/08/18 02:58:35;;;;;;;0.45;0.40;;;20.60;39.30;;;;;;5037959;28;20022;-70
2023/08/18 03:01:05;;;;;;;3.60;1.75;;;20.80;38.20;;;;;;5028704;28;20080;-69
2023/08/18 03:03:33;;;;;;;0.30;0.30;;;21.20;38.60;;;;;;5018234;28;20054;-70
2023/08/18 03:06:07;;;;;;;0.30;0.30;;;20.70;39.00;;;;;;5018249;28;20482;-68
2023/08/18 03:08:36;;;;;;;0.40;0.40;;;20.80;39.20;;;;;;5017210;28;20034;-69
2023/08/18 03:11:04;;;;;;;0.88;0.35;;;20.60;39.00;;;;;;5017046;28;20050;-70
2023/08/18 03:13:33;;;;;;;0.63;0.40;;;20.60;39.80;;;;;;5017205;28;20026;-70
2023/08/18 03:16:01;;;;;;;2.65;0.32;;;20.60;38.70;;;;;;5000821;28;20018;-71
2023/08/18 03:18:28;;;;;;;0.65;0.47;;;21.00;39.20;;;;;;5000657;28;20359;-68
2023/08/18 03:21:09;;;;;;;0.50;0.30;;;21.00;38.00;;;;;;5018034;28;20030;-66
2023/08/18 03:23:48;;;;;;;0.47;0.40;;;20.50;38.50;;;;;;5018710;28;20022;-68
2023/08/18 03:26:20;;;;;;;1.40;0.35;;;20.20;39.90;;;;;;5017288;28;20060;-70
2023/08/18 03:28:52;;;;;;;1.02;0.32;;;20.70;38.40;;;;;;5018143;28;20033;-69
2023/08/18 03:31:19;;;;;;;1.38;0.30;;;20.70;38.40;;;;;;5017299;28;20030;-70
2023/08/18 03:33:47;;;;;;;1.23;0.50;;;20.50;38.10;;;;;;5000501;28;20052;-71
2023/08/18 03:36:15;;;;;;;0.52;0.40;;;20.90;38.10;;;;;;5016560;28;20036;-70
2023/08/18 03:38:42;;;;;;;1.08;0.50;;;20.70;37.30;;;;;;5016165;28;20022;-70
2023/08/18 03:41:10;;;;;;;0.60;0.40;;;20.60;37.60;;;;;;5016469;28;20491;-71
2023/08/18 03:43:38;;;;;;;0.60;0.40;;;20.20;37.80;;;;;;5016687;28;20029;-70
2023/08/18 03:46:26;;;;;;;0.50;0.40;;;20.40;38.00;;;;;;5000251;28;20341;-71
2023/08/18 03:48:53;;;;;;;2.38;0.30;;;20.30;35.20;;;;;;5000194;28;20032;-70
2023/08/18 03:51:21;;;;;;;0.30;0.30;;;20.60;36.50;;;;;;5016387;28;20123;-71
2023/08/18 03:53:49;;;;;;;0.60;0.30;;;20.90;35.70;;;;;;5000206;28;20587;-70
2023/08/18 03:56:16;;;;;;;2.05;0.40;;;20.80;34.00;;;;;;5016375;28;20030;-69
2023/08/18 03:58:44;;;;;;;1.17;0.55;;;20.40;34.50;;;;;;5016145;28;20032;-69
2023/08/18 04:01:13;;;;;;;1.08;0.40;;;19.60;35.60;;;;;;5016939;28;20348;-68
2023/08/18 04:03:43;;;;;;;0.70;0.70;;;19.60;36.00;;;;;;5016248;28;20095;-69
2023/08/18 04:06:14;;;;;;;1.27;0.32;;;19.00;36.40;;;;;;5016174;28;20030;-69
2023/08/18 04:08:46;;;;;;;1.35;0.50;;;19.30;36.20;;;;;;5019211;28;20022;-67
2023/08/18 04:11:17;;;;;;;2.00;0.70;;;19.60;36.10;;;;;;5016434;28;20363;-69
2023/08/18 04:13:50;;;;;;;0.95;0.35;;;19.80;35.80;;;;;;4999682;28;20040;-66
2023/08/18 04:16:17;;;;;;;1.17;0.40;;;18.90;36.70;;;;;;5016035;28;20021;-69
2023/08/18 04:18:46;;;;;;;1.15;0.40;;;19.70;36.70;;;;;;5015707;28;20103;-68
2023/08/18 04:21:13;;;;;;;0.73;0.40;;;19.80;35.90;;;;;;5016060;28;20038;-68
2023/08/18 04:23:41;;;;;;;0.63;0.40;;;20.20;35.70;;;;;;5016871;28;20029;-68
2023/08/18 04:26:12;;;;;;;0.85;0.28;;;20.10;35.60;;;;;;5015799;28;20080;-69
2023/08/18 04:28:40;;;;;;;1.02;0.40;;;20.20;36.80;;;;;;5016049;28;20030;-69
2023/08/18 04:31:07;;;;;;;1.85;0.50;;;20.40;35.50;;;;;;5015644;28;20040;-68
2023/08/18 04:33:38;;;;;;;1.60;0.50;;;19.60;35.70;;;;;;5015806;28;20030;-67
2023/08/18 04:36:06;;;;;;;1.05;0.30;;;19.60;36.70;;;;;;5016502;28;20037;-67
2023/08/18 04:38:34;;;;;;;1.00;0.50;;;19.60;36.30;;;;;;5016754;28;20021;-68
2023/08/18 04:41:03;;;;;;;1.25;0.60;;;19.60;36.50;;;;;;5016514;28;20069;-68
2023/08/18 04:43:31;;;;;;;1.63;0.55;;;20.10;36.10;;;;;;5015491;28;20399;-68
2023/08/18 04:45:59;;;;;;;0.75;0.43;;;19.90;36.50;;;;;;5016477;28;20441;-68
2023/08/18 04:48:26;;;;;;;0.63;0.50;;;20.00;36.90;;;;;;5015347;28;20045;-68
2023/08/18 04:50:54;;;;;;;1.10;0.40;;;20.30;36.00;;;;;;5015305;28;20048;-68
2023/08/18 04:53:22;;;;;;;2.60;0.47;;;19.90;36.30;;;;;;5014759;28;20475;-69
2023/08/18 04:55:49;;;;;;;0.38;0.30;;;19.90;36.00;;;;;;5015613;28;20460;-69
2023/08/18 04:58:17;;;;;;;2.03;0.45;;;20.30;36.90;;;;;;4998709;28;20064;-69
2023/08/18 05:00:46;;;;;;;0.90;0.40;;;20.80;36.00;;;;;;5015199;28;20330;-68
2023/08/18 05:03:13;;;;;;;1.58;0.60;;;20.70;34.40;;;;;;5015113;28;20036;-69
2023/08/18 05:06:02;;;;;;;0.90;0.40;;;21.20;34.00;;;;;;5016582;28;20040;-69
2023/08/18 05:08:32;;;;;;;0.68;0.40;;;22.10;33.10;;;;;;4998958;28;20030;-69
2023/08/18 05:11:10;;;;;;;0.70;0.38;;;21.80;33.00;;;;;;5014927;28;20026;-68
2023/08/18 05:13:40;;;;;;;1.98;0.60;;;21.30;33.30;;;;;;5015871;28;20105;-73
2023/08/18 05:16:07;;;;;;;0.80;0.40;;;21.60;33.40;;;;;;5014548;28;20113;-74
2023/08/18 05:18:36;;;;;;;2.67;0.60;;;21.20;33.60;;;;;;5014334;28;20026;-74
2023/08/18 05:21:04;;;;;;;1.17;0.30;;;21.30;33.70;;;;;;5015837;28;20121;-74
2023/08/18 05:23:32;;;;;;;0.57;0.40;;;21.70;33.40;;;;;;5014735;28;20464;-73
2023/08/18 05:26:00;;;;;;;0.77;0.30;;;21.60;33.70;;;;;;5014799;28;20124;-74
2023/08/18 05:28:32;;;;;;;0.55;0.32;;;20.60;35.50;;;;;;5014466;28;20107;-74
2023/08/18 05:31:00;;;;;;;0.98;0.40;;;21.90;33.80;;;;;;5014418;28;20026;-73
2023/08/18 05:33:27;;;;;;;1.50;0.77;;;20.30;35.40;;;;;;5015491;28;20493;-74
2023/08/18 05:35:59;;;;;;;1.35;1.10;;;21.00;34.60;;;;;;5014468;28;20112;-75
2023/08/18 05:38:27;;;;;;;1.58;0.50;;;20.10;35.90;;;;;;4998295;28;20018;-75
2023/08/18 05:41:03;;;;;;;0.55;0.30;;;20.90;34.40;;;;;;5014379;28;20050;-74
2023/08/18 05:43:31;;;;;;;1.38;0.57;;;18.30;39.20;;;;;;4981751;28;20080;-75
2023/08/18 05:45:59;;;;;;;1.95;0.60;;;19.40;38.40;;;;;;5014721;28;20037;-75
2023/08/18 05:48:26;;;;;;;1.08;0.50;;;19.80;37.40;;;;;;5014346;28;20213;-75
2023/08/18 05:50:54;;;;;;;0.38;0.20;;;20.70;35.20;;;;;;5014026;28;20053;-74
2023/08/18 05:53:22;;;;;;;1.70;0.52;;;20.20;35.70;;;;;;5015232;28;20033;-74
2023/08/18 05:55:50;;;;;;;1.80;0.60;;;21.60;34.40;;;;;;5015089;28;20026;-74
2023/08/18 05:58:19;;;;;;;2.10;0.80;;;21.20;34.90;;;;;;5014162;28;20018;-75
2023/08/18 06:00:49;;;;;;;2.05;0.50;;;20.90;35.20;;;;;;5014172;28;20084;-75
2023/08/18 06:03:20;;;;;;;2.97;0.55;;;21.80;33.70;;;;;;4981705;28;20037;-75
2023/08/18 06:05:50;;;;;;;0.90;0.30;;;22.30;33.60;;;;;;5018097;28;20022;-74
2023/08/18 06:08:17;;;;;;;0.60;0.50;;;22.50;33.90;;;;;;5018168;28;20022;-74
2023/08/18 06:10:52;;;;;;;1.55;0.50;;;23.90;32.70;;;;;;5019131;28;20022;-76
2023/08/18 06:13:23;;;;;;;0.30;0.30;;;23.60;32.20;;;;;;5002754;28;20032;-75
2023/08/18 06:15:54;;;;;;;0.20;0.20;;;23.10;32.40;;;;;;5018371;28;20329;-78
2023/08/18 06:18:24;;;;;;;0.50;0.40;;;23.10;32.80;;;;;;5018853;28;20108;-77
2023/08/18 06:20:51;;;;;;;0.60;0.38;;;23.70;32.60;;;;;;5018654;28;20049;-78
2023/08/18 06:23:19;;;;;;;0.50;0.38;;;22.40;33.70;;;;;;5020290;28;20026;-78
2023/08/18 06:25:47;;;;;;;0.73;0.40;;;21.60;34.30;;;;;;5019019;28;20026;-78
2023/08/18 06:28:14;;;;;;;0.20;0.20;;;22.50;33.80;;;;;;5018021;28;20045;-70
2023/08/18 06:30:42;;;;;;;0.30;0.20;;;20.50;35.90;;;;;;5018636;28;20029;-70
2023/08/18 06:33:20;;;;;;;0.17;0.10;;;18.30;39.30;;;;;;5019466;28;20026;-69
2023/08/18 06:35:50;;;;;;;0.20;0.20;;;17.40;41.50;;;;;;5001499;28;20033;-68
2023/08/18 06:38:18;;;;;;;0.45;0.28;;;16.90;42.50;;;;;;5018622;28;20018;-68
2023/08/18 06:40:46;;;;;;;0.20;0.20;;;16.80;43.00;;;;;;5017558;28;20029;-69
2023/08/18 06:43:13;;;;;;;0.50;0.30;;;16.60;44.10;;;;;;5017564;28;20045;-68
2023/08/18 06:45:41;;;;;;;0.95;0.30;;;16.50;44.70;;;;;;5018373;28;20025;-64
2023/08/18 06:48:09;;;;;;;0.73;0.35;;;16.50;44.80;;;;;;5018336;28;20022;-65
2023/08/18 06:50:36;;;;;;;0.57;0.30;;;16.40;45.20;;;;;;5017275;28;20026;-68
2023/08/18 06:53:04;;;;;;;0.22;0.20;;;16.30;45.30;;;;;;5018676;28;20022;-67
2023/08/18 06:55:32;;;;;;;0.35;0.30;;;16.10;46.00;;;;;;5018273;28;20030;-65
2023/08/18 06:57:59;;;;;;;0.28;0.20;;;16.10;46.30;;;;;;5018243;28;20076;-66
2023/08/18 07:00:27;;;;;;;2.17;0.30;;;15.90;46.70;;;;;;5017469;28;20053;-66
2023/08/18 07:02:54;;;;;;;0.73;0.28;;;15.60;47.50;;;;;;5017712;28;20531;-66
2023/08/18 07:05:24;;;;;;;0.38;0.30;;;15.60;47.70;;;;;;5018101;28;20352;-66
2023/08/18 07:07:53;;;;;;;0.30;0.30;;;15.50;48.00;;;;;;5018023;28;20025;-65
2023/08/18 07:10:21;;;;;;;0.30;0.30;;;15.50;48.30;;;;;;5016915;28;20026;-66
2023/08/18 07:12:49;;;;;;;0.93;0.40;;;15.40;48.60;;;;;;5017057;28;20040;-66
2023/08/18 07:15:17;;;;;;;0.63;0.50;;;15.30;48.60;;;;;;5017473;28;20467;-65
2023/08/18 07:17:44;;;;;;;0.30;0.22;;;15.20;48.40;;;;;;5016978;28;20029;-66
2023/08/18 07:20:12;;;;;;;1.00;0.38;;;15.00;47.90;;;;;;5017849;28;20092;-66
2023/08/18 07:22:40;;;;;;;0.40;0.30;;;15.10;47.10;;;;;;5017074;28;20030;-66
2023/08/18 07:25:10;;;;;;;0.55;0.30;;;15.10;46.80;;;;;;5016933;28;20025;-66
2023/08/18 07:27:38;;;;;;;0.35;0.20;;;15.00;46.40;;;;;;5016686;28;20125;-66
2023/08/18 07:30:07;;;;;;;0.47;0.30;;;14.90;46.10;;;;;;5017672;28;20034;-66
2023/08/18 07:32:34;;;;;;;0.45;0.32;;;14.90;46.50;;;;;;5016754;28;20026;-66
2023/08/18 07:35:06;;;;;;;0.82;0.40;;;14.70;46.50;;;;;;5017689;28;20444;-65
2023/08/18 07:37:33;;;;;;;0.40;0.40;;;14.70;46.80;;;;;;5016675;28;20026;-64
2023/08/18 07:40:05;;;;;;;0.73;0.30;;;14.60;47.00;;;;;;5016642;28;20113;-66
2023/08/18 07:42:33;;;;;;;1.38;0.20;;;14.60;47.40;;;;;;5017591;28;20033;-66
2023/08/18 07:45:02;;;;;;;0.68;0.20;;;14.60;47.50;;;;;;5017476;28;20033;-66
2023/08/18 07:47:30;;;;;;;0.30;0.28;;;14.50;47.60;;;;;;5016468;28;20033;-66
2023/08/18 07:49:58;;;;;;;1.52;0.40;;;14.40;48.20;;;;;;5017195;28;20065;-66
2023/08/18 07:52:26;;;;;;;0.77;0.40;;;14.40;48.40;;;;;;5016421;28;20033;-66
2023/08/18 07:54:53;;;;;;;0.60;0.38;;;14.30;48.60;;;;;;5017282;28;20026;-66
2023/08/18 07:57:21;;;;;;;0.93;0.40;;;14.20;49.00;;;;;;5017238;28;20026;-66
2023/08/18 07:59:49;;;;;;;0.57;0.40;;;14.20;48.90;;;;;;4999827;28;20038;-66
2023/08/18 08:02:16;;;;;;;0.70;0.40;;;14.20;49.10;;;;;;5016197;28;20456;-65
2023/08/18 08:04:44;;;;;;;2.08;0.60;;;14.10;49.30;;;;;;5016129;28;20121;-64
2023/08/18 08:07:12;;;;;;;1.90;0.80;;;14.00;49.50;;;;;;5017068;28;20026;-63
2023/08/18 08:09:40;;;;;;;1.83;0.80;;;14.00;50.00;;;;;;5016070;28;20017;-63
2023/08/18 08:12:08;;;;;;;1.90;0.75;;;13.90;50.20;;;;;;5016211;28;20018;-64
2023/08/18 08:14:36;;;;;;;0.90;0.70;;;13.80;50.70;;;;;;5015906;28;20029;-64
2023/08/18 08:17:04;;;;;;;1.65;1.13;;;13.70;50.80;;;;;;5015931;28;20459;-63
2023/08/18 08:19:32;;;;;;;1.23;0.70;;;13.60;51.20;;;;;;4999279;28;20054;-63
2023/08/18 08:21:59;;;;;;;1.75;0.70;;;13.60;51.00;;;;;;5016830;28;20101;-63
2023/08/18 08:24:29;;;;;;;1.30;0.80;;;13.60;51.20;;;;;;5016761;28;20056;-63
2023/08/18 08:26:56;;;;;;;0.77;0.60;;;13.60;50.80;;;;;;5015953;28;20034;-63
2023/08/18 08:29:24;;;;;;;1.63;0.70;;;13.60;51.10;;;;;;5016620;28;20106;-63
2023/08/18 08:31:52;;;;;;;0.98;0.70;;;13.60;51.20;;;;;;5015510;28;20053;-63
2023/08/18 08:34:20;;;;;;;1.35;0.50;;;13.50;51.40;;;;;;5016583;28;20069;-63
2023/08/18 08:36:47;;;;;;;0.63;0.50;;;13.50;51.60;;;;;;5016526;28;20033;-63
2023/08/18 08:39:15;;;;;;;0.63;0.40;;;13.50;51.40;;;;;;5015445;28;20168;-64
2023/08/18 08:41:43;;;;;;;1.08;0.50;;;13.50;51.70;;;;;;5016473;28;20514;-65
2023/08/18 08:44:10;;;;;;;1.50;0.50;;;13.50;51.80;;;;;;5015427;28;20360;-63
2023/08/18 08:46:40;;;;;;;1.95;0.50;;;13.60;51.80;;;;;;5016295;28;20036;-62
2023/08/18 08:49:09;;;;;;;1.77;0.70;;;13.50;51.90;;;;;;5016274;28;20025;-62
2023/08/18 08:51:40;;;;;;;1.70;0.60;;;13.50;52.20;;;;;;5015079;28;20022;-62
2023/08/18 08:54:11;;;;;;;1.88;0.82;;;13.50;52.20;;;;;;5015169;28;20030;-63
2023/08/18 08:56:41;;;;;;;1.23;0.80;;;13.40;52.40;;;;;;5016351;28;20101;-64
2023/08/18 08:59:10;;;;;;;1.70;1.00;;;13.40;52.60;;;;;;5016094;28;20101;-64
2023/08/18 09:01:37;;;;;;;2.13;0.60;;;13.30;52.80;;;;;;5015089;28;20026;-63
2023/08/18 09:04:05;;;;;;;1.65;0.80;;;13.30;52.80;;;;;;5015116;28;20072;-64
2023/08/18 09:06:33;;;;;;;0.70;0.60;;;13.20;53.00;;;;;;5015155;28;20029;-63
2023/08/18 09:09:01;;;;;;;1.75;0.80;;;13.20;53.00;;;;;;5015978;28;20045;-64
2023/08/18 09:11:46;;;;;;;1.45;0.60;;;13.30;52.80;;;;;;5015007;28;20025;-64
2023/08/18 09:14:14;;;;;;;1.33;0.80;;;13.30;52.60;;;;;;5014950;28;20026;-63
2023/08/18 09:16:45;;;;;;;1.38;0.70;;;13.30;52.90;;;;;;5015011;28;20018;-64
2023/08/18 09:19:16;;;;;;;2.38;0.60;;;13.30;52.80;;;;;;5014676;28;20088;-64
2023/08/18 09:21:43;;;;;;;0.55;0.45;;;13.30;52.80;;;;;;5014930;28;20064;-64
2023/08/18 09:24:11;;;;;;;0.98;0.47;;;13.30;52.80;;;;;;5014781;28;20022;-64
2023/08/18 09:26:39;;;;;;;2.08;0.40;;;13.20;53.10;;;;;;5014641;28;20054;-64
2023/08/18 09:29:06;;;;;;;0.80;0.40;;;13.20;53.30;;;;;;5015563;28;20132;-64
2023/08/18 09:31:34;;;;;;;0.30;0.20;;;13.10;53.50;;;;;;5014610;28;20030;-63
2023/08/18 09:34:02;;;;;;;0.82;0.40;;;13.10;53.60;;;;;;5014724;28;20356;-63
2023/08/18 09:36:32;;;;;;;1.17;0.45;;;13.10;53.80;;;;;;4993519;28;20448;-65
2023/08/18 09:39:05;;;;;;;0.65;0.38;;;13.10;54.00;;;;;;5014408;28;20336;-62
2023/08/18 09:41:33;;;;;;;0.75;0.40;;;13.00;54.10;;;;;;5015678;28;20108;-62
2023/08/18 09:44:01;;;;;;;1.10;0.30;;;13.00;54.70;;;;;;5015496;28;20333;-64
2023/08/18 09:46:33;;;;;;;1.05;0.30;;;12.90;54.50;;;;;;5015516;28;20033;-64
2023/08/18 09:49:03;;;;;;;0.40;0.40;;;12.90;54.70;;;;;;5014484;28;20057;-63
2023/08/18 09:51:31;;;;;;;0.95;0.40;;;12.90;54.70;;;;;;5014415;28;20452;-64
2023/08/18 09:54:05;;;;;;;0.93;0.25;;;12.90;54.80;;;;;;5015329;28;20026;-64
2023/08/18 09:56:38;;;;;;;0.75;0.30;;;12.80;54.90;;;;;;5015452;28;20014;-64
2023/08/18 09:59:26;;;;;;;0.30;0.25;;;12.70;55.10;;;;;;4998222;28;20084;-64
2023/08/18 10:01:55;;;;;;;0.30;0.30;;;12.80;55.10;;;;;;5000265;28;20528;-63
2023/08/18 10:04:25;;;;;;;0.47;0.30;;;12.70;55.10;;;;;;5014402;28;20030;-64
2023/08/18 10:06:54;;;;;;;0.40;0.30;;;12.60;55.40;;;;;;5015319;28;20069;-64
2023/08/18 10:09:22;;;;;;;0.45;0.40;;;12.60;55.60;;;;;;5014270;28;20034;-65
2023/08/18 10:11:51;;;;;;;0.47;0.30;;;12.60;55.90;;;;;;5014196;28;20022;-65
2023/08/18 10:14:22;;;;;;;0.93;0.50;;;12.50;55.90;;;;;;5014436;28;20523;-65
2023/08/18 10:16:53;;;;;;;0.73;0.45;;;12.50;56.00;;;;;;4998081;28;20444;-64
2023/08/18 10:19:49;;;;;;;0.50;0.35;;;12.50;55.50;;;;;;5014980;28;20092;-66
2023/08/18 10:22:19;;;;;;;0.65;0.40;;;12.50;56.00;;;;;;4997844;28;20029;-65
2023/08/18 10:24:52;;;;;;;0.80;0.30;;;12.40;56.00;;;;;;4998038;28;20041;-66
2023/08/18 10:27:28;;;;;;;0.80;0.30;;;12.50;55.60;;;;;;5015133;28;20053;-65
2023/08/18 10:29:59;;;;;;;0.30;0.20;;;12.40;55.50;;;;;;5015003;28;20053;-64
2023/08/18 10:32:27;;;;;;;1.00;0.40;;;12.40;55.40;;;;;;4998458;28;20029;-66
2023/08/18 10:35:17;;;;;;;1.05;0.40;;;12.40;55.70;;;;;;5015031;28;20037;-65
2023/08/18 10:37:47;;;;;;;1.33;0.50;;;12.40;55.50;;;;;;5015002;28;20018;-65
2023/08/18 10:40:40;;;;;;;0.95;0.60;;;12.30;55.90;;;;;;4997668;28;20036;-65
2023/08/18 10:43:18;;;;;;;1.73;0.35;;;12.30;55.90;;;;;;5014053;28;20112;-65
2023/08/18 10:45:52;;;;;;;1.63;0.80;;;12.30;55.90;;;;;;4998413;28;20034;-66
2023/08/18 10:48:20;;;;;;;0.40;0.40;;;12.20;56.00;;;;;;5014149;28;20033;-64
2023/08/18 10:50:48;;;;;;;0.63;0.30;;;12.10;56.10;;;;;;5015900;28;20025;-64
2023/08/18 10:53:17;;;;;;;0.20;0.20;;;12.10;56.50;;;;;;5018647;28;20037;-64
2023/08/18 10:55:45;;;;;;;0.55;0.30;;;12.00;56.80;;;;;;5018532;28;20384;-65
2023/08/18 10:58:15;;;;;;;0.70;0.35;;;12.00;57.00;;;;;;5000879;28;20344;-64
2023/08/18 11:00:43;;;;;;;2.30;0.50;;;11.90;57.20;;;;;;5017780;28;20109;-65
2023/08/18 11:03:10;;;;;;;0.40;0.32;;;11.80;57.60;;;;;;5017481;28;20080;-65
2023/08/18 11:05:44;;;;;;;1.95;0.57;;;11.80;57.60;;;;;;5018279;28;20048;-65
2023/08/18 11:08:13;;;;;;;0.43;0.30;;;11.70;58.00;;;;;;5018240;28;20041;-64
2023/08/18 11:10:45;;;;;;;0.93;0.43;;;11.80;57.90;;;;;;5017250;28;20026;-64
2023/08/18 11:13:32;;;;;;;1.13;0.50;;;11.70;58.10;;;;;;5017310;28;20029;-65
2023/08/18 11:16:00;;;;;;;1.33;0.60;;;11.70;58.40;;;;;;5018142;28;20033;-65
2023/08/18 11:18:28;;;;;;;0.55;0.55;;;11.70;58.60;;;;;;5016903;28;20145;-64
2023/08/18 11:21:06;;;;;;;1.17;0.73;;;11.60;58.60;;;;;;5018010;28;20071;-65
2023/08/18 11:23:34;;;;;;;0.88;0.70;;;11.50;58.60;;;;;;5016978;28;20049;-64
2023/08/18 11:26:03;;;;;;;1.52;0.70;;;11.50;58.70;;;;;;5017008;28;20435;-65
2023/08/18 11:28:33;;;;;;;0.95;0.70;;;11.50;58.70;;;;;;5016848;28;20515;-65
2023/08/18 11:31:05;;;;;;;1.52;0.70;;;11.50;58.40;;;;;;5016796;28;20038;-65
2023/08/18 11:33:33;;;;;;;1.30;0.70;;;11.50;58.30;;;;;;5017017;28;20456;-64
2023/08/18 11:36:01;;;;;;;0.43;0.40;;;11.60;58.40;;;;;;4996191;28;20034;-63
2023/08/18 11:38:30;;;;;;;1.13;0.43;;;11.60;57.90;;;;;;5017739;28;20344;-64
2023/08/18 11:40:59;;;;;;;1.40;0.50;;;11.60;57.80;;;;;;5016736;28;20029;-64
2023/08/18 11:43:28;;;;;;;1.08;0.52;;;11.60;57.40;;;;;;5018013;28;20029;-64
2023/08/18 11:45:56;;;;;;;1.38;0.55;;;11.60;57.20;;;;;;5016675;28;20210;-65
2023/08/18 11:48:29;;;;;;;1.27;0.50;;;11.70;57.00;;;;;;5016507;28;20030;-63
2023/08/18 11:50:56;;;;;;;;;;;11.60;57.20;;;;;;5017789;28;20030;-65
2023/08/18 11:53:25;;;;;;;2.15;0.70;;;11.60;57.30;;;;;;5016552;28;19916;-66
2023/08/18 11:55:53;;;;;;;1.75;0.50;;;11.60;57.30;;;;;;5000271;28;20050;-64
2023/08/18 11:58:24;;;;;;;1.98;0.60;;;11.50;57.30;;;;;;5016352;28;20356;-65
2023/08/18 12:00:52;;;;;;;1.48;0.90;;;11.50;57.40;;;;;;5017432;28;20030;-63
2023/08/18 12:03:25;;;;;;;2.10;0.80;;;11.50;57.90;;;;;;5017284;28;20068;-65
2023/08/18 12:05:55;;;;;;;0.77;0.60;;;11.40;57.90;;;;;;5015948;28;20037;-63
2023/08/18 12:08:23;;;;;;;2.70;0.80;;;11.40;58.20;;;;;;5000155;28;20041;-64
2023/08/18 12:10:54;;;;;;;1.98;0.90;;;11.30;58.30;;;;;;5015983;28;20371;-64
2023/08/18 12:13:22;;;;;;;1.50;0.70;;;11.30;58.20;;;;;;5016219;28;20111;-64
2023/08/18 12:15:51;;;;;;;3.88;1.10;;;11.30;58.20;;;;;;5017021;28;20018;-64
2023/08/18 12:18:22;;;;;;;2.75;1.10;;;11.30;58.40;;;;;;5016853;28;20026;-63
2023/08/18 12:20:50;;;;;;;3.25;1.30;;;11.30;58.50;;;;;;4995499;28;20050;-63
2023/08/18 12:23:18;;;;;;;4.75;1.52;;;11.30;58.50;;;;;;4996300;28;20149;-64
2023/08/18 12:25:46;;;;;;;4.28;1.50;;;11.20;58.60;;;;;;4996084;28;20117;-64
2023/08/18 12:28:13;;;;;;;1.60;0.93;;;11.20;58.50;;;;;;4996438;28;20041;-63
2023/08/18 12:30:41;;;;;;;3.30;1.30;;;11.20;58.50;;;;;;4997087;28;20460;-64
2023/08/18 12:33:08;;;;;;;2.30;1.38;;;11.20;58.60;;;;;;4996123;28;20030;-63
2023/08/18 12:35:36;;;;;;;4.50;1.30;;;11.00;58.80;;;;;;4996003;28;20033;-63
2023/08/18 12:38:04;;;;;;;3.88;1.40;;;11.00;59.20;;;;;;4996974;28;20564;-64
2023/08/18 12:40:32;;;;;;;3.05;1.27;;;11.00;59.40;;;;;;4996008;28;20026;-64
2023/08/18 12:42:59;;;;;;;3.45;1.10;;;10.90;59.40;;;;;;4996061;28;20026;-64
2023/08/18 12:45:28;;;;;;;1.95;0.90;;;10.80;59.40;;;;;;5012282;28;20030;-64
2023/08/18 12:47:55;;;;;;;2.15;1.27;;;10.90;59.50;;;;;;4995776;28;20034;-62
2023/08/18 12:50:23;;;;;;;2.78;1.27;;;10.80;59.60;;;;;;4996913;28;20373;-64
2023/08/18 12:52:51;;;;;;;3.45;1.45;;;10.80;60.00;;;;;;4996486;28;20352;-63
2023/08/18 12:55:19;;;;;;;2.78;1.00;;;10.70;60.20;;;;;;4996527;28;20073;-63
2023/08/18 12:57:46;;;;;;;3.05;1.23;;;10.60;60.90;;;;;;4992898;28;20420;-63
2023/08/18 13:00:16;;;;;;;2.47;1.15;;;10.50;61.30;;;;;;4995779;28;20362;-63